createdAt,value
2022-09-24T00:01:45.260Z,13.57
2022-09-24T00:04:27.454Z,13.52
2022-09-24T00:07:08.968Z,13.51
2022-09-24T00:10:01.487Z,13.52
2022-09-24T00:12:42.227Z,13.53
2022-09-24T00:15:22.052Z,13.62
2022-09-24T00:18:01.957Z,13.59
2022-09-24T00:20:41.670Z,13.61
2022-09-24T00:23:21.443Z,13.63
2022-09-24T00:26:19.438Z,13.69
2022-09-24T00:28:59.937Z,13.58
2022-09-24T00:31:40.508Z,13.54
2022-09-24T00:34:22.494Z,13.52
2022-09-24T00:37:02.904Z,13.51
2022-09-24T00:39:42.734Z,13.49
2022-09-24T00:42:22.832Z,13.45
2022-09-24T00:45:02.340Z,13.45
2022-09-24T00:47:43.550Z,13.45
2022-09-24T00:50:26.293Z,13.46
2022-09-24T00:53:09.489Z,13.45
2022-09-24T00:55:51.658Z,13.43
2022-09-24T00:58:31.209Z,13.42
2022-09-24T01:01:12.804Z,13.42
2022-09-24T01:03:54.435Z,13.46
2022-09-24T01:06:35.175Z,13.46
2022-09-24T01:09:13.706Z,13.43
2022-09-24T01:12:01.213Z,13.43
2022-09-24T01:14:51.414Z,13.44
2022-09-24T01:17:38.385Z,13.47
2022-09-24T01:20:49.281Z,13.49
2022-09-24T01:24:04.719Z,13.56
2022-09-24T01:26:57.020Z,13.51
2022-09-24T01:29:50.171Z,13.51
2022-09-24T01:32:34.372Z,13.48
2022-09-24T01:35:16.641Z,13.50
2022-09-24T01:38:00.041Z,13.43
2022-09-24T01:40:40.775Z,13.42
2022-09-24T01:43:22.073Z,13.40
2022-09-24T01:46:06.384Z,13.38
2022-09-24T01:48:47.680Z,13.41
2022-09-24T01:51:34.242Z,13.39
2022-09-24T01:54:22.019Z,13.42
2022-09-24T01:57:09.553Z,13.43
2022-09-24T01:59:55.128Z,13.44
2022-09-24T02:02:40.608Z,13.47
2022-09-24T02:05:27.167Z,13.50
2022-09-24T02:08:10.425Z,13.49
2022-09-24T02:10:54.843Z,13.47
2022-09-24T02:13:40.226Z,13.46
2022-09-24T02:16:22.845Z,13.47
2022-09-24T02:19:06.075Z,13.49
2022-09-24T02:21:49.104Z,13.43
2022-09-24T02:24:35.308Z,13.47
2022-09-24T02:27:16.071Z,13.44
2022-09-24T02:29:56.034Z,13.42
2022-09-24T02:32:37.044Z,13.52
2022-09-24T02:35:17.773Z,13.61
2022-09-24T02:38:01.676Z,13.71
2022-09-24T02:40:44.975Z,13.83
2022-09-24T02:43:25.893Z,13.11
2022-09-24T02:46:06.181Z,12.85
2022-09-24T02:48:47.660Z,12.80
2022-09-24T02:51:29.296Z,12.77
2022-09-24T02:54:11.019Z,12.69
2022-09-24T02:56:51.869Z,12.70
2022-09-24T02:59:33.275Z,12.67
2022-09-24T03:02:12.844Z,12.67
2022-09-24T03:04:52.755Z,12.65
2022-09-24T03:07:33.332Z,12.65
2022-09-24T03:10:26.510Z,12.63
2022-09-24T03:13:06.985Z,12.61
2022-09-24T03:15:47.449Z,12.67
2022-09-24T03:18:28.110Z,12.65
2022-09-24T03:21:10.945Z,12.65
2022-09-24T03:23:49.974Z,12.65
2022-09-24T03:26:29.300Z,12.63
2022-09-24T03:29:11.444Z,12.61
2022-09-24T03:31:54.040Z,12.60
2022-09-24T03:34:33.510Z,12.57
2022-09-24T03:37:15.127Z,12.58
2022-09-24T03:39:56.519Z,12.59
2022-09-24T03:42:37.937Z,12.55
2022-09-24T03:45:17.861Z,12.55
2022-09-24T03:47:57.215Z,12.55
2022-09-24T03:50:38.617Z,12.55
2022-09-24T03:53:19.158Z,12.56
2022-09-24T03:56:02.325Z,12.53
2022-09-24T03:58:47.913Z,12.47
2022-09-24T04:01:33.086Z,12.47
2022-09-24T04:04:15.461Z,12.37
2022-09-24T04:06:54.994Z,12.42
2022-09-24T04:09:36.105Z,12.40
2022-09-24T04:12:16.260Z,12.38
2022-09-24T04:14:56.345Z,12.33
2022-09-24T04:17:35.857Z,12.35
2022-09-24T04:20:17.820Z,12.37
2022-09-24T04:22:58.835Z,12.24
2022-09-24T04:25:41.369Z,12.28
2022-09-24T04:28:21.451Z,12.31
2022-09-24T04:31:02.355Z,12.28
2022-09-24T04:33:43.689Z,12.21
2022-09-24T04:36:26.082Z,12.27
2022-09-24T04:39:07.579Z,12.28
2022-09-24T04:41:48.922Z,12.27
2022-09-24T04:44:33.028Z,12.28
2022-09-24T04:47:15.412Z,12.26
2022-09-24T04:49:55.907Z,12.26
2022-09-24T04:52:36.895Z,12.26
2022-09-24T04:55:29.023Z,12.25
2022-09-24T04:58:09.275Z,12.24
2022-09-24T05:00:48.534Z,12.24
2022-09-24T05:03:29.330Z,12.20
2022-09-24T05:06:09.939Z,12.20
2022-09-24T05:08:50.573Z,12.13
2022-09-24T05:11:31.037Z,12.09
2022-09-24T05:14:10.748Z,12.13
2022-09-24T05:16:52.985Z,12.12
2022-09-24T05:19:33.714Z,12.14
2022-09-24T05:22:13.433Z,12.14
2022-09-24T05:24:53.189Z,11.95
2022-09-24T05:27:35.725Z,11.97
2022-09-24T05:30:17.540Z,11.78
2022-09-24T05:32:57.652Z,11.72
2022-09-24T05:35:37.243Z,11.76
2022-09-24T05:38:17.461Z,11.81
2022-09-24T05:40:56.942Z,11.82
2022-09-24T05:43:37.874Z,11.76
2022-09-24T05:46:18.218Z,11.78
2022-09-24T05:48:58.189Z,11.78
2022-09-24T05:51:37.658Z,11.84
2022-09-24T05:54:17.874Z,11.88
2022-09-24T05:56:59.977Z,11.92
2022-09-24T05:59:40.282Z,11.92
2022-09-24T06:02:20.121Z,11.94
2022-09-24T06:04:59.898Z,11.95
2022-09-24T06:08:02.612Z,11.76
2022-09-24T06:10:43.735Z,11.73
2022-09-24T06:13:22.856Z,11.70
2022-09-24T06:16:03.544Z,11.76
2022-09-24T06:18:46.342Z,11.67
2022-09-24T06:21:25.474Z,11.66
2022-09-24T06:24:17.317Z,11.74
2022-09-24T06:26:58.302Z,11.85
2022-09-24T06:29:38.333Z,11.91
2022-09-24T06:32:20.093Z,11.91
2022-09-24T06:34:59.503Z,12.21
2022-09-24T06:37:39.315Z,12.67
2022-09-24T06:40:19.213Z,12.65
2022-09-24T06:42:58.962Z,12.69
2022-09-24T06:45:38.817Z,12.31
2022-09-24T06:48:22.175Z,12.32
2022-09-24T06:51:01.615Z,12.34
2022-09-24T06:53:41.375Z,12.37
2022-09-24T06:56:21.234Z,12.41
2022-09-24T06:59:02.952Z,12.47
2022-09-24T07:01:45.187Z,12.52
2022-09-24T07:04:27.426Z,12.56
2022-09-24T07:07:24.577Z,12.62
2022-09-24T07:10:07.815Z,12.64
2022-09-24T07:12:49.200Z,12.70
2022-09-24T07:15:28.569Z,12.75
2022-09-24T07:18:08.923Z,12.80
2022-09-24T07:20:53.735Z,12.84
2022-09-24T07:23:37.097Z,12.87
2022-09-24T07:26:17.411Z,12.93
2022-09-24T07:28:57.265Z,12.91
2022-09-24T07:31:37.307Z,12.88
2022-09-24T07:34:16.981Z,12.81
2022-09-24T07:36:57.255Z,12.93
2022-09-24T07:39:38.477Z,13.03
2022-09-24T07:42:17.999Z,13.13
2022-09-24T07:45:10.606Z,13.24
2022-09-24T07:48:05.763Z,13.29
2022-09-24T07:50:45.278Z,13.30
2022-09-24T07:53:25.110Z,13.40
2022-09-24T07:56:05.105Z,13.30
2022-09-24T07:58:44.771Z,13.42
2022-09-24T08:01:25.456Z,13.40
2022-09-24T08:04:08.372Z,13.59
2022-09-24T08:06:48.930Z,13.72
2022-09-24T08:09:27.483Z,13.73
2022-09-24T08:12:07.424Z,13.73
2022-09-24T08:14:47.001Z,13.85
2022-09-24T08:17:27.413Z,13.90
2022-09-24T08:20:11.493Z,13.97
2022-09-24T08:22:50.952Z,13.98
2022-09-24T08:25:31.297Z,14.08
2022-09-24T08:28:12.598Z,14.07
2022-09-24T08:30:52.137Z,14.07
2022-09-24T08:33:33.685Z,14.08
2022-09-24T08:36:13.560Z,14.15
2022-09-24T08:38:54.815Z,14.21
2022-09-24T08:41:45.476Z,14.25
2022-09-24T08:44:47.396Z,14.23
2022-09-24T08:47:35.531Z,14.23
2022-09-24T08:50:17.300Z,14.27
2022-09-24T08:53:44.632Z,14.41
2022-09-24T08:56:27.937Z,14.48
2022-09-24T08:59:19.924Z,14.56
2022-09-24T09:02:14.651Z,14.60
2022-09-24T09:05:02.216Z,14.65
2022-09-24T09:07:46.498Z,14.68
2022-09-24T09:10:29.140Z,14.75
2022-09-24T09:13:13.982Z,14.68
2022-09-24T09:16:00.748Z,14.67
2022-09-24T09:18:43.533Z,14.70
2022-09-24T09:21:27.615Z,14.54
2022-09-24T09:24:13.777Z,14.41
2022-09-24T09:26:56.028Z,14.54
2022-09-24T09:29:37.554Z,14.62
2022-09-24T09:32:30.419Z,14.45
2022-09-24T09:35:19.412Z,14.80
2022-09-24T09:38:05.288Z,14.58
2022-09-24T09:40:49.530Z,14.57
2022-09-24T09:43:30.417Z,14.57
2022-09-24T09:46:14.104Z,14.64
2022-09-24T09:48:57.548Z,14.65
2022-09-24T09:51:40.209Z,14.67
2022-09-24T09:54:19.654Z,14.73
2022-09-24T09:57:03.566Z,14.80
2022-09-24T09:59:47.161Z,14.82
2022-09-24T10:02:29.224Z,14.77
2022-09-24T10:05:24.826Z,14.81
2022-09-24T10:08:29.844Z,14.88
2022-09-24T10:11:16.146Z,14.94
2022-09-24T10:14:04.239Z,14.86
2022-09-24T10:16:45.090Z,14.92
2022-09-24T10:19:27.941Z,14.96
2022-09-24T10:22:16.536Z,14.77
2022-09-24T10:25:00.447Z,14.99
2022-09-24T10:27:42.091Z,15.09
2022-09-24T10:30:34.400Z,15.08
2022-09-24T10:33:15.499Z,15.07
2022-09-24T10:36:06.823Z,15.20
2022-09-24T10:39:12.713Z,15.28
2022-09-24T10:42:07.537Z,15.37
2022-09-24T10:44:52.844Z,15.39
2022-09-24T10:47:37.805Z,15.29
2022-09-24T10:50:27.372Z,15.41
2022-09-24T10:53:14.888Z,15.40
2022-09-24T10:55:57.206Z,15.42
2022-09-24T10:59:07.675Z,15.39
2022-09-24T11:02:20.862Z,15.40
2022-09-24T11:05:16.303Z,15.55
2022-09-24T11:08:00.255Z,15.55
2022-09-24T11:10:53.331Z,15.58
2022-09-24T11:13:41.309Z,15.69
2022-09-24T11:17:03.187Z,15.71
2022-09-24T11:19:52.283Z,15.79
2022-09-24T11:22:38.767Z,15.79
2022-09-24T11:25:31.482Z,15.83
2022-09-24T11:28:21.174Z,15.90
2022-09-24T11:31:09.781Z,15.96
2022-09-24T11:34:10.259Z,15.93
2022-09-24T11:37:02.918Z,16.02
2022-09-24T11:39:56.241Z,16.03
2022-09-24T11:42:47.089Z,16.07
2022-09-24T11:45:37.670Z,16.04
2022-09-24T11:48:29.370Z,16.04
2022-09-24T11:51:19.585Z,15.99
2022-09-24T11:54:03.270Z,16.10
2022-09-24T11:56:44.461Z,16.09
2022-09-24T11:59:34.169Z,16.18
2022-09-24T12:02:19.150Z,16.08
2022-09-24T12:05:03.327Z,16.06
2022-09-24T12:07:46.520Z,16.08
2022-09-24T12:10:32.722Z,16.10
2022-09-24T12:13:17.321Z,16.13
2022-09-24T12:15:57.891Z,16.11
2022-09-24T12:18:44.992Z,16.11
2022-09-24T12:21:32.107Z,16.16
2022-09-24T12:24:16.157Z,16.11
2022-09-24T12:26:58.248Z,16.21
2022-09-24T12:30:01.334Z,16.19
2022-09-24T12:32:55.822Z,16.23
2022-09-24T12:35:43.558Z,16.30
2022-09-24T12:38:28.146Z,16.19
2022-09-24T12:41:20.009Z,16.28
2022-09-24T12:44:02.728Z,16.31
2022-09-24T12:46:45.206Z,16.21
2022-09-24T12:49:31.084Z,16.20
2022-09-24T12:52:19.716Z,16.24
2022-09-24T12:55:02.121Z,16.06
2022-09-24T12:57:43.425Z,15.87
2022-09-24T13:00:41.004Z,16.03
2022-09-24T13:03:33.885Z,15.96
2022-09-24T13:06:24.113Z,15.98
2022-09-24T13:09:31.057Z,15.96
2022-09-24T13:12:22.506Z,16.02
2022-09-24T13:15:04.327Z,15.95
2022-09-24T13:17:47.261Z,15.84
2022-09-24T13:20:27.899Z,15.97
2022-09-24T13:23:15.789Z,16.00
2022-09-24T13:26:09.437Z,15.88
2022-09-24T13:28:55.391Z,15.88
2022-09-24T13:31:42.143Z,15.85
2022-09-24T13:34:25.912Z,15.95
2022-09-24T13:37:15.238Z,15.80
2022-09-24T13:39:57.659Z,15.69
2022-09-24T13:42:40.829Z,15.57
2022-09-24T13:45:21.977Z,15.64
2022-09-24T13:48:04.783Z,15.64
2022-09-24T13:50:49.537Z,15.63
2022-09-24T13:53:32.198Z,15.57
2022-09-24T13:56:15.548Z,15.42
2022-09-24T13:59:04.841Z,15.48
2022-09-24T14:01:47.081Z,15.50
2022-09-24T14:04:27.077Z,15.53
2022-09-24T14:07:07.802Z,15.54
2022-09-24T14:10:07.338Z,15.42
2022-09-24T14:12:47.755Z,15.48
2022-09-24T14:15:27.488Z,15.47
2022-09-24T14:18:12.685Z,15.49
2022-09-24T14:20:57.709Z,15.48
2022-09-24T14:23:41.314Z,15.31
2022-09-24T14:26:28.586Z,15.41
2022-09-24T14:29:15.238Z,15.38
2022-09-24T14:31:58.029Z,15.38
2022-09-24T14:34:39.818Z,15.42
2022-09-24T14:37:20.637Z,15.42
2022-09-24T14:40:04.671Z,15.40
2022-09-24T14:42:46.921Z,15.41
2022-09-24T14:45:29.680Z,15.33
2022-09-24T14:48:20.620Z,15.21
2022-09-24T14:51:01.712Z,15.12
2022-09-24T14:53:41.261Z,15.14
2022-09-24T14:56:28.780Z,15.13
2022-09-24T14:59:16.514Z,15.04
2022-09-24T15:02:05.208Z,14.99
2022-09-24T15:04:48.488Z,14.97
2022-09-24T15:07:29.883Z,15.02
2022-09-24T15:10:22.220Z,14.94
2022-09-24T15:13:13.738Z,14.93
2022-09-24T15:16:08.802Z,14.87
2022-09-24T15:18:56.050Z,14.91
2022-09-24T15:21:35.770Z,14.84
2022-09-24T15:24:14.325Z,14.80
2022-09-24T15:27:02.441Z,14.76
2022-09-24T15:29:43.220Z,14.74
2022-09-24T15:32:22.930Z,14.72
2022-09-24T15:35:07.577Z,14.61
2022-09-24T15:37:48.786Z,14.58
2022-09-24T15:40:33.743Z,14.54
2022-09-24T15:43:20.388Z,14.59
2022-09-24T15:46:01.536Z,14.47
2022-09-24T15:48:40.970Z,14.46
2022-09-24T15:51:22.591Z,14.49
2022-09-24T15:54:02.155Z,14.52
2022-09-24T15:56:44.387Z,14.57
2022-09-24T15:59:25.318Z,14.55
2022-09-24T16:02:11.163Z,14.61
2022-09-24T16:04:51.046Z,14.58
2022-09-24T16:07:32.831Z,14.60
2022-09-24T16:10:13.255Z,14.57
2022-09-24T16:12:53.660Z,14.61
2022-09-24T16:15:33.486Z,14.59
2022-09-24T16:18:15.271Z,14.50
2022-09-24T16:20:54.627Z,14.46
2022-09-24T16:23:34.924Z,14.35
2022-09-24T16:26:16.284Z,14.45
2022-09-24T16:28:55.677Z,14.44
2022-09-24T16:31:35.518Z,14.46
2022-09-24T16:34:17.407Z,14.46
2022-09-24T16:36:58.740Z,14.39
2022-09-24T16:39:38.105Z,14.38
2022-09-24T16:42:18.012Z,14.37
2022-09-24T16:44:59.797Z,14.34
2022-09-24T16:47:41.217Z,14.31
2022-09-24T16:50:23.391Z,14.33
2022-09-24T16:53:04.911Z,14.33
2022-09-24T16:55:46.328Z,14.28
2022-09-24T16:58:26.328Z,14.23
2022-09-24T17:02:00.780Z,14.26
2022-09-24T17:04:40.555Z,14.30
2022-09-24T17:07:23.420Z,14.25
2022-09-24T17:10:15.832Z,14.25
2022-09-24T17:12:55.956Z,14.27
2022-09-24T17:15:35.886Z,14.21
2022-09-24T17:18:15.539Z,14.25
2022-09-24T17:21:01.783Z,14.24
2022-09-24T17:23:43.632Z,14.26
2022-09-24T17:26:25.524Z,14.25
2022-09-24T17:29:07.512Z,14.22
2022-09-24T17:31:49.561Z,14.19
2022-09-24T17:34:29.219Z,14.16
2022-09-24T17:37:10.644Z,14.14
2022-09-24T17:39:48.769Z,14.14
2022-09-24T17:42:28.937Z,14.17
2022-09-24T17:45:10.106Z,14.09
2022-09-24T17:47:58.462Z,13.99
2022-09-24T17:50:37.665Z,14.05
2022-09-24T17:53:17.054Z,14.03
2022-09-24T17:55:56.924Z,13.99
2022-09-24T17:58:39.400Z,13.90
2022-09-24T18:02:07.628Z,13.91
2022-09-24T18:04:47.223Z,13.89
2022-09-24T18:07:30.509Z,13.87
2022-09-24T18:10:10.351Z,13.85
2022-09-24T18:12:54.519Z,13.85
2022-09-24T18:15:36.891Z,13.84
2022-09-24T18:18:18.694Z,13.79
2022-09-24T18:20:59.786Z,13.71
2022-09-24T18:23:42.882Z,13.80
2022-09-24T18:26:24.228Z,13.76
2022-09-24T18:29:05.900Z,13.75
2022-09-24T18:31:46.168Z,13.76
2022-09-24T18:34:26.726Z,13.79
2022-09-24T18:37:05.934Z,13.76
2022-09-24T18:39:45.241Z,13.73
2022-09-24T18:42:25.660Z,13.79
2022-09-24T18:45:09.344Z,13.75
2022-09-24T18:47:49.987Z,13.72
2022-09-24T18:50:30.419Z,13.78
2022-09-24T18:53:10.249Z,13.75
2022-09-24T18:55:50.104Z,13.72
2022-09-24T18:58:29.883Z,13.76
2022-09-24T19:01:09.212Z,13.77
2022-09-24T19:03:49.833Z,13.77
2022-09-24T19:06:28.620Z,13.74
2022-09-24T19:09:10.034Z,13.77
2022-09-24T19:11:53.590Z,13.78
2022-09-24T19:14:33.523Z,13.74
2022-09-24T19:17:14.759Z,13.77
2022-09-24T19:20:08.867Z,13.79
2022-09-24T19:22:58.244Z,13.79
2022-09-24T19:25:40.523Z,13.73
2022-09-24T19:28:22.307Z,13.79
2022-09-24T19:31:03.091Z,13.79
2022-09-24T19:33:45.128Z,13.77
2022-09-24T19:36:25.670Z,13.79
2022-09-24T19:39:06.190Z,13.78
2022-09-24T19:41:47.254Z,13.78
2022-09-24T19:44:37.737Z,13.73
2022-09-24T19:47:18.527Z,13.77
2022-09-24T19:50:00.285Z,13.79
2022-09-24T19:52:41.466Z,13.77
2022-09-24T19:55:35.800Z,13.78
2022-09-24T19:58:15.578Z,13.76
2022-09-24T20:00:55.915Z,13.78
2022-09-24T20:03:40.485Z,13.75
2022-09-24T20:06:23.490Z,13.67
2022-09-24T20:09:01.862Z,13.73
2022-09-24T20:11:39.974Z,13.72
2022-09-24T20:14:20.610Z,13.72
2022-09-24T20:17:00.777Z,13.67
2022-09-24T20:19:40.596Z,13.72
2022-09-24T20:22:21.105Z,13.74
2022-09-24T20:25:01.743Z,13.73
2022-09-24T20:27:52.312Z,13.75
2022-09-24T20:30:37.681Z,13.72
2022-09-24T20:33:17.599Z,13.74
2022-09-24T20:36:02.123Z,13.70
2022-09-24T20:38:41.753Z,13.70
2022-09-24T20:41:22.157Z,13.72
2022-09-24T20:44:14.645Z,13.68
2022-09-24T20:46:54.420Z,13.71
2022-09-24T20:49:55.279Z,13.69
2022-09-24T20:53:30.881Z,13.70
2022-09-24T20:56:10.212Z,13.66
2022-09-24T20:59:01.802Z,13.70
2022-09-24T21:01:44.683Z,13.64
2022-09-24T21:04:26.973Z,13.67
2022-09-24T21:07:07.592Z,13.68
2022-09-24T21:09:47.837Z,13.64
2022-09-24T21:12:29.234Z,13.64
2022-09-24T21:15:11.852Z,13.66
2022-09-24T21:18:21.268Z,13.74
2022-09-24T21:20:54.172Z,13.72
2022-09-24T21:23:36.192Z,14.03
2022-09-24T21:26:18.915Z,14.12
2022-09-24T21:29:00.610Z,14.07
2022-09-24T21:31:41.915Z,14.06
2022-09-24T21:34:35.308Z,14.06
2022-09-24T21:37:17.659Z,13.96
2022-09-24T21:39:57.163Z,14.04
2022-09-24T21:42:37.587Z,14.02
2022-09-24T21:45:18.394Z,14.01
2022-09-24T21:47:58.095Z,13.74
2022-09-24T21:51:30.067Z,13.67
2022-09-24T21:54:14.115Z,13.66
2022-09-24T21:56:55.027Z,13.61
2022-09-24T21:59:50.776Z,13.60
2022-09-24T22:02:31.309Z,13.60
2022-09-24T22:05:16.423Z,13.61
2022-09-24T22:07:55.136Z,13.59
2022-09-24T22:11:03.654Z,13.59
2022-09-24T22:13:44.939Z,13.56
2022-09-24T22:16:24.608Z,13.54
2022-09-24T22:19:04.613Z,13.55
2022-09-24T22:21:44.169Z,13.55
2022-09-24T22:24:23.051Z,13.58
2022-09-24T22:27:04.456Z,13.58
2022-09-24T22:29:46.349Z,13.56
2022-09-24T22:32:26.533Z,13.55
2022-09-24T22:35:25.633Z,13.56
2022-09-24T22:38:06.797Z,13.54
2022-09-24T22:41:29.270Z,13.51
2022-09-24T22:44:11.572Z,13.51
2022-09-24T22:46:50.490Z,13.48
2022-09-24T22:49:32.621Z,13.50
2022-09-24T22:52:12.931Z,13.48
2022-09-24T22:55:20.070Z,13.51
2022-09-24T22:57:59.252Z,13.50
2022-09-24T23:00:41.405Z,13.47
2022-09-24T23:03:23.884Z,13.49
2022-09-24T23:06:02.612Z,13.51
2022-09-24T23:08:41.083Z,13.52
2022-09-24T23:11:25.041Z,13.51
2022-09-24T23:14:05.325Z,13.47
2022-09-24T23:16:47.345Z,13.46
2022-09-24T23:19:46.578Z,13.44
2022-09-24T23:22:26.886Z,13.35
2022-09-24T23:25:05.567Z,13.34
2022-09-24T23:27:46.756Z,13.36
2022-09-24T23:30:29.489Z,13.33
2022-09-24T23:33:09.616Z,13.35
2022-09-24T23:36:33.216Z,13.36
2022-09-24T23:39:14.641Z,13.30
2022-09-24T23:41:55.419Z,13.32
2022-09-24T23:44:48.440Z,13.24
2022-09-24T23:47:41.818Z,13.28
2022-09-24T23:50:20.987Z,13.28
2022-09-24T23:53:00.834Z,13.27
2022-09-24T23:55:42.580Z,13.22
2022-09-24T23:58:21.805Z,13.11
